Atbasar, Kazakhstan
Current Conditions -  °F | °C
As of 3:30 AM on Tuesday 25 Nov 2014 (Local Time) from UACC Reporting Station
Ice Pellets Ice Pellets  
Wind Chill: -42°   Ceiling: Unl
Heat Index: -18°   Visibility: 3mi
Dew Point: -24°   Wind: 13mph
Humidity: 76%   Direction: 230°SW
Pressure: 30.42"   Gusts: NA
Location:  51.82°N, 68.35°E
Report Text: UACC 242130Z 23006MPS 5000 IC SCT007 M28/M31 Q1030 R22/8/0065NOSIG RMK QFE741/0988
Loading
Personal Weather Stations






























Interactive Weather Map New forecast layout! Learn more

10-Day Weather Forecast

Advertisements
Track Severe Weather on mobile